Time;durP1;ratioP1;P1;durP2;ratioP2;P2;SDS_P1;SDS_P2;PMS_P1;PMS_P2;Temp;Humidity;BMP_temperature;BMP_pressure;BME280_temperature;BME280_humidity;BME280_pressure;Samples;Min_cycle;Max_cycle;Signal;HPM_P1;HPM_P2
2021/09/20 00:02:22;;;;;;;2.25;1.10;;;;;;;;;;4914883;29;20450;-81
2021/09/20 00:04:48;;;;;;;3.78;1.10;;;;;;;;;;4897677;29;20051;-81
2021/09/20 00:07:14;;;;;;;2.88;0.85;;;;;;;;;;4905982;29;20036;-81
2021/09/20 00:09:40;;;;;;;2.15;0.93;;;;;;;;;;4909835;29;20826;-81
2021/09/20 00:12:06;;;;;;;4.00;0.88;;;;;;;;;;4908813;29;20042;-81
2021/09/20 00:14:32;;;;;;;2.85;0.80;;;;;;;;;;4900677;29;20052;-80
2021/09/20 00:16:58;;;;;;;3.40;1.40;;;;;;;;;;4916045;29;20038;-81
2021/09/20 00:19:24;;;;;;;6.28;1.80;;;;;;;;;;4915727;29;20417;-82
2021/09/20 00:21:50;;;;;;;3.90;1.50;;;;;;;;;;4916111;29;20455;-81
2021/09/20 00:24:16;;;;;;;3.70;1.50;;;;;;;;;;4916117;29;20063;-81
2021/09/20 00:26:42;;;;;;;3.10;1.20;;;;;;;;;;4915717;29;20087;-81
2021/09/20 00:29:08;;;;;;;3.97;1.23;;;;;;;;;;4916052;29;20830;-81
2021/09/20 00:31:34;;;;;;;2.50;0.93;;;;;;;;;;4915436;29;20044;-81
2021/09/20 00:34:00;;;;;;;1.90;0.85;;;;;;;;;;4915733;29;20036;-81
2021/09/20 00:36:27;;;;;;;2.03;0.80;;;;;;;;;;4915125;29;20036;-82
2021/09/20 00:38:53;;;;;;;7.50;1.15;;;;;;;;;;4915809;29;20055;-80
2021/09/20 00:41:19;;;;;;;2.15;0.80;;;;;;;;;;4915762;29;20044;-81
2021/09/20 00:43:45;;;;;;;2.15;1.00;;;;;;;;;;4916071;29;20029;-81
2021/09/20 00:46:11;;;;;;;4.15;1.08;;;;;;;;;;4923096;29;20043;-81
2021/09/20 00:48:38;;;;;;;4.47;1.00;;;;;;;;;;4934197;29;20043;-81
2021/09/20 00:51:04;;;;;;;9.68;1.17;;;;;;;;;;4928535;29;20063;-81
2021/09/20 00:53:30;;;;;;;2.97;0.60;;;;;;;;;;4915688;29;20712;-81
2021/09/20 00:55:56;;;;;;;6.20;1.23;;;;;;;;;;4915280;29;20348;-81
2021/09/20 00:58:22;;;;;;;2.97;0.80;;;;;;;;;;4904777;29;20774;-81
2021/09/20 01:00:48;;;;;;;3.10;0.77;;;;;;;;;;4922916;29;20032;-82
2021/09/20 01:03:15;;;;;;;1.95;0.73;;;;;;;;;;4915724;29;20483;-80
2021/09/20 01:05:41;;;;;;;2.20;0.80;;;;;;;;;;4915914;29;20036;-81
2021/09/20 01:08:07;;;;;;;2.60;0.90;;;;;;;;;;4916889;29;20110;-81
2021/09/20 01:10:33;;;;;;;7.63;1.35;;;;;;;;;;4916363;29;20036;-81
2021/09/20 01:12:59;;;;;;;3.40;0.90;;;;;;;;;;4915171;29;20042;-81
2021/09/20 01:15:25;;;;;;;5.10;1.00;;;;;;;;;;4915129;29;20119;-81
2021/09/20 01:17:52;;;;;;;3.30;1.00;;;;;;;;;;4911962;29;20036;-81
2021/09/20 01:20:18;;;;;;;5.45;1.10;;;;;;;;;;4918594;29;20068;-81
2021/09/20 01:22:46;;;;;;;5.88;1.27;;;;;;;;;;4918514;29;20039;-80
2021/09/20 01:25:12;;;;;;;3.60;0.90;;;;;;;;;;4916543;29;20040;-81
2021/09/20 01:27:38;;;;;;;2.03;0.70;;;;;;;;;;4912339;29;20047;-80
2021/09/20 01:30:05;;;;;;;2.25;0.73;;;;;;;;;;4896164;29;20526;-81
2021/09/20 01:32:31;;;;;;;5.57;0.80;;;;;;;;;;4895507;29;20032;-81
2021/09/20 01:34:57;;;;;;;1.52;0.65;;;;;;;;;;4907844;29;20103;-81
2021/09/20 01:37:23;;;;;;;4.78;0.80;;;;;;;;;;4914627;29;20068;-81
2021/09/20 01:39:49;;;;;;;1.98;0.70;;;;;;;;;;4922480;29;20474;-81
2021/09/20 01:42:15;;;;;;;5.20;1.00;;;;;;;;;;4918149;29;20028;-81
2021/09/20 01:44:41;;;;;;;1.55;0.60;;;;;;;;;;4909563;29;20037;-81
2021/09/20 01:47:07;;;;;;;2.35;0.70;;;;;;;;;;4898757;29;20039;-80
2021/09/20 01:49:33;;;;;;;2.40;0.70;;;;;;;;;;4915728;29;20078;-81
2021/09/20 01:52:00;;;;;;;3.50;0.90;;;;;;;;;;4920390;29;20176;-82
2021/09/20 01:54:26;;;;;;;1.38;0.60;;;;;;;;;;4917338;29;20091;-81
2021/09/20 01:56:53;;;;;;;1.67;0.60;;;;;;;;;;4912909;29;20036;-81
2021/09/20 01:59:19;;;;;;;3.85;0.60;;;;;;;;;;4895298;29;20044;-82
2021/09/20 02:01:45;;;;;;;2.63;0.73;;;;;;;;;;4894959;29;20029;-81
2021/09/20 02:04:11;;;;;;;2.63;0.70;;;;;;;;;;4930484;29;20032;-81
2021/09/20 02:06:37;;;;;;;2.47;0.80;;;;;;;;;;4934109;29;20125;-81
2021/09/20 02:09:06;;;;;;;2.47;1.08;;;;;;;;;;4927149;29;20053;-81
2021/09/20 02:11:33;;;;;;;3.88;0.90;;;;;;;;;;4926789;29;20027;-82
2021/09/20 02:13:58;;;;;;;5.95;0.82;;;;;;;;;;4925601;29;20424;-81
2021/09/20 02:16:24;;;;;;;3.05;1.35;;;;;;;;;;4921885;29;20027;-81
2021/09/20 02:18:50;;;;;;;1.60;0.70;;;;;;;;;;4920336;29;20119;-80
2021/09/20 02:21:17;;;;;;;3.17;0.80;;;;;;;;;;4914112;29;20460;-80
2021/09/20 02:23:43;;;;;;;2.42;0.70;;;;;;;;;;4917230;29;20031;-81
2021/09/20 02:26:09;;;;;;;4.30;0.80;;;;;;;;;;4933040;29;20471;-81
2021/09/20 02:28:37;;;;;;;4.07;0.75;;;;;;;;;;4905293;29;20470;-81
2021/09/20 02:31:06;;;;;;;1.80;0.55;;;;;;;;;;4903314;29;20040;-81
2021/09/20 02:33:33;;;;;;;3.55;0.60;;;;;;;;;;4905396;29;20032;-81
2021/09/20 02:35:59;;;;;;;3.20;0.60;;;;;;;;;;4899403;29;20712;-81
2021/09/20 02:38:26;;;;;;;2.53;0.60;;;;;;;;;;4897263;29;20107;-81
2021/09/20 02:40:52;;;;;;;1.77;0.57;;;;;;;;;;4904078;29;20035;-81
2021/09/20 02:43:18;;;;;;;4.30;0.80;;;;;;;;;;4913876;29;20032;-81
2021/09/20 02:45:44;;;;;;;6.10;0.77;;;;;;;;;;4913669;29;20056;-81
2021/09/20 02:48:10;;;;;;;6.68;0.90;;;;;;;;;;4915195;29;20027;-81
2021/09/20 02:50:36;;;;;;;2.47;0.70;;;;;;;;;;4909220;29;20106;-81
2021/09/20 02:53:03;;;;;;;3.78;0.68;;;;;;;;;;4894690;29;20036;-81
2021/09/20 02:55:29;;;;;;;2.13;0.50;;;;;;;;;;4911301;29;20487;-81
2021/09/20 02:57:55;;;;;;;1.88;0.63;;;;;;;;;;4913363;29;20067;-81
2021/09/20 03:00:21;;;;;;;2.78;1.10;;;;;;;;;;4920733;29;20067;-80
2021/09/20 03:02:47;;;;;;;7.35;0.98;;;;;;;;;;4926833;29;20020;-80
2021/09/20 03:05:13;;;;;;;2.65;1.08;;;;;;;;;;4912626;29;20142;-81
2021/09/20 03:07:39;;;;;;;3.58;1.58;;;;;;;;;;4913474;29;20028;-81
2021/09/20 03:10:05;;;;;;;7.75;1.30;;;;;;;;;;4907063;29;20036;-81
2021/09/20 03:12:31;;;;;;;3.80;1.30;;;;;;;;;;4912859;29;20139;-81
2021/09/20 03:14:57;;;;;;;3.35;0.77;;;;;;;;;;4908774;29;20112;-80
2021/09/20 03:17:23;;;;;;;1.88;0.70;;;;;;;;;;4894541;29;20097;-80
2021/09/20 03:19:49;;;;;;;1.63;0.57;;;;;;;;;;4898879;29;20043;-81
2021/09/20 03:22:15;;;;;;;3.28;0.70;;;;;;;;;;4913274;29;20128;-81
2021/09/20 03:24:41;;;;;;;4.50;1.08;;;;;;;;;;4912865;29;20043;-81
2021/09/20 03:27:07;;;;;;;5.47;0.90;;;;;;;;;;4913279;29;20035;-81
2021/09/20 03:29:33;;;;;;;1.88;0.82;;;;;;;;;;4913264;29;20047;-81
2021/09/20 03:32:00;;;;;;;4.53;1.17;;;;;;;;;;4912996;29;20051;-81
2021/09/20 03:34:26;;;;;;;4.55;1.00;;;;;;;;;;4913133;29;20051;-81
2021/09/20 03:36:52;;;;;;;6.68;0.80;;;;;;;;;;4912475;29;20032;-81
2021/09/20 03:39:18;;;;;;;3.88;1.00;;;;;;;;;;4913063;29;20491;-80
2021/09/20 03:41:44;;;;;;;2.40;1.10;;;;;;;;;;4911987;29;20116;-81
2021/09/20 03:44:10;;;;;;;2.42;1.17;;;;;;;;;;4910418;29;20107;-80
2021/09/20 03:46:36;;;;;;;2.10;1.15;;;;;;;;;;4926149;29;20078;-80
2021/09/20 03:49:03;;;;;;;3.10;0.80;;;;;;;;;;4909049;29;20063;-81
2021/09/20 03:51:29;;;;;;;2.63;0.90;;;;;;;;;;4912437;29;20052;-80
2021/09/20 03:53:55;;;;;;;2.78;1.10;;;;;;;;;;4913583;29;20791;-81
2021/09/20 03:56:21;;;;;;;5.20;1.17;;;;;;;;;;4902745;29;20054;-80
2021/09/20 03:58:47;;;;;;;2.78;0.88;;;;;;;;;;4912630;29;20071;-80
2021/09/20 04:01:13;;;;;;;3.08;0.88;;;;;;;;;;4909097;29;20055;-80
2021/09/20 04:03:39;;;;;;;1.77;0.55;;;;;;;;;;4912685;29;20028;-81
2021/09/20 04:06:05;;;;;;;2.03;0.90;;;;;;;;;;4912342;29;20036;-80
2021/09/20 04:08:31;;;;;;;1.90;0.95;;;;;;;;;;4912986;29;20080;-80
2021/09/20 04:10:58;;;;;;;7.40;0.77;;;;;;;;;;4912924;29;20383;-81
2021/09/20 04:13:24;;;;;;;3.35;0.63;;;;;;;;;;4912892;29;20036;-80
2021/09/20 04:15:53;;;;;;;4.93;0.63;;;;;;;;;;4913194;29;20092;-81
2021/09/20 04:18:23;;;;;;;5.40;0.68;;;;;;;;;;4929870;29;20043;-80
2021/09/20 04:20:51;;;;;;;2.25;0.60;;;;;;;;;;4918722;29;20059;-80
2021/09/20 04:23:19;;;;;;;1.42;0.47;;;;;;;;;;4912886;29;20032;-81
2021/09/20 04:25:45;;;;;;;1.85;0.63;;;;;;;;;;4916837;29;20092;-81
2021/09/20 04:28:11;;;;;;;2.47;0.60;;;;;;;;;;4915455;29;20051;-80
2021/09/20 04:30:37;;;;;;;3.65;0.82;;;;;;;;;;4916684;29;20044;-80
2021/09/20 04:33:03;;;;;;;4.57;0.77;;;;;;;;;;4908217;29;20599;-80
2021/09/20 04:35:29;;;;;;;6.15;0.82;;;;;;;;;;4897542;29;20039;-80
2021/09/20 04:37:55;;;;;;;4.15;0.77;;;;;;;;;;4905251;29;20131;-81
2021/09/20 04:40:22;;;;;;;3.30;0.80;;;;;;;;;;4916420;29;20028;-81
2021/09/20 04:42:48;;;;;;;4.57;0.80;;;;;;;;;;4915189;29;20106;-81
2021/09/20 04:45:14;;;;;;;3.13;0.73;;;;;;;;;;4915882;29;20115;-80
2021/09/20 04:47:40;;;;;;;4.95;0.80;;;;;;;;;;4915001;29;20540;-80
2021/09/20 04:50:06;;;;;;;4.38;0.70;;;;;;;;;;4915509;29;20052;-80
2021/09/20 04:52:32;;;;;;;3.35;0.90;;;;;;;;;;4904891;29;20036;-80
2021/09/20 04:54:58;;;;;;;4.90;0.90;;;;;;;;;;4901531;29;20068;-80
2021/09/20 04:57:24;;;;;;;3.58;0.90;;;;;;;;;;4896695;29;20091;-80
2021/09/20 04:59:50;;;;;;;2.58;0.80;;;;;;;;;;4900552;29;20860;-80
2021/09/20 05:02:16;;;;;;;2.67;0.93;;;;;;;;;;4912015;29;20032;-80
2021/09/20 05:04:42;;;;;;;3.03;0.80;;;;;;;;;;4915609;29;20040;-80
2021/09/20 05:07:08;;;;;;;3.95;1.02;;;;;;;;;;4928206;29;20114;-80
2021/09/20 05:09:34;;;;;;;3.28;0.70;;;;;;;;;;4934539;29;20530;-80
2021/09/20 05:12:00;;;;;;;2.92;0.80;;;;;;;;;;4922688;29;20036;-80
2021/09/20 05:14:26;;;;;;;2.95;0.70;;;;;;;;;;4911791;29;20067;-80
2021/09/20 05:16:52;;;;;;;3.55;0.70;;;;;;;;;;4910244;29;20038;-81
2021/09/20 05:19:19;;;;;;;2.60;0.77;;;;;;;;;;4902500;29;20118;-80
2021/09/20 05:21:45;;;;;;;2.63;0.90;;;;;;;;;;4914936;29;20083;-81
2021/09/20 05:24:11;;;;;;;4.35;1.42;;;;;;;;;;4914188;29;20048;-80
2021/09/20 05:26:37;;;;;;;7.00;1.95;;;;;;;;;;4916696;29;20104;-81
2021/09/20 05:29:03;;;;;;;5.28;1.70;;;;;;;;;;4908176;29;20040;-80
2021/09/20 05:31:29;;;;;;;6.28;1.50;;;;;;;;;;4910382;29;20051;-80
2021/09/20 05:33:55;;;;;;;4.15;1.17;;;;;;;;;;4910075;29;20032;-80
2021/09/20 05:36:21;;;;;;;6.55;1.02;;;;;;;;;;4913932;29;20043;-80
2021/09/20 05:38:47;;;;;;;6.30;1.13;;;;;;;;;;4903013;29;20468;-80
2021/09/20 05:41:13;;;;;;;5.90;1.25;;;;;;;;;;4910280;29;20054;-79
2021/09/20 05:43:39;;;;;;;4.65;0.90;;;;;;;;;;4911397;29;20028;-80
2021/09/20 05:46:06;;;;;;;5.45;1.00;;;;;;;;;;4907939;29;20059;-79
2021/09/20 05:48:32;;;;;;;7.30;1.10;;;;;;;;;;4911016;29;20024;-80
2021/09/20 05:50:58;;;;;;;2.67;0.80;;;;;;;;;;4905527;29;20067;-80
2021/09/20 05:53:24;;;;;;;3.45;0.95;;;;;;;;;;4919516;29;20023;-80
2021/09/20 05:55:50;;;;;;;4.97;1.80;;;;;;;;;;4909516;29;20103;-79
2021/09/20 05:58:16;;;;;;;4.03;1.35;;;;;;;;;;4912824;29;20059;-79
2021/09/20 06:00:43;;;;;;;7.65;1.15;;;;;;;;;;4907562;29;20056;-79
2021/09/20 06:03:09;;;;;;;6.05;1.30;;;;;;;;;;4904498;29;20025;-80
2021/09/20 06:05:38;;;;;;;1.80;0.70;;;;;;;;;;4911992;29;20388;-79
2021/09/20 06:08:08;;;;;;;3.20;0.80;;;;;;;;;;4906566;29;20483;-79
2021/09/20 06:10:34;;;;;;;2.08;0.70;;;;;;;;;;4909010;29;20044;-79
2021/09/20 06:13:00;;;;;;;6.70;0.90;;;;;;;;;;4911954;29;20518;-79
2021/09/20 06:15:26;;;;;;;3.85;1.30;;;;;;;;;;4912872;29;20808;-80
2021/09/20 06:17:52;;;;;;;6.13;1.13;;;;;;;;;;4913032;29;20052;-79
2021/09/20 06:20:18;;;;;;;3.60;0.93;;;;;;;;;;4913246;29;20076;-79
2021/09/20 06:22:44;;;;;;;5.70;0.80;;;;;;;;;;4902400;29;20162;-79
2021/09/20 06:25:10;;;;;;;3.10;0.80;;;;;;;;;;4911371;29;20622;-79
2021/09/20 06:27:37;;;;;;;5.47;1.00;;;;;;;;;;4913734;29;20107;-79
2021/09/20 06:30:05;;;;;;;3.88;0.77;;;;;;;;;;4910690;29;20044;-80
2021/09/20 06:32:32;;;;;;;3.58;0.90;;;;;;;;;;4921863;29;20106;-80
2021/09/20 06:34:58;;;;;;;6.40;1.00;;;;;;;;;;4914706;29;20043;-80
2021/09/20 06:37:24;;;;;;;7.38;1.40;;;;;;;;;;4913198;29;20040;-79
2021/09/20 06:39:50;;;;;;;4.70;1.30;;;;;;;;;;4907314;29;20380;-80
2021/09/20 06:42:16;;;;;;;5.07;1.50;;;;;;;;;;4910966;29;20472;-79
2021/09/20 06:44:42;;;;;;;5.65;1.20;;;;;;;;;;4900475;29;20382;-79
2021/09/20 06:47:09;;;;;;;8.50;1.92;;;;;;;;;;4903497;29;20052;-79
2021/09/20 06:49:35;;;;;;;4.97;1.52;;;;;;;;;;4911349;29;20047;-79
2021/09/20 06:52:02;;;;;;;6.07;1.60;;;;;;;;;;4903265;29;20028;-80
2021/09/20 06:54:28;;;;;;;7.07;1.58;;;;;;;;;;4912407;29;20043;-79
2021/09/20 06:56:54;;;;;;;3.45;1.60;;;;;;;;;;4911570;29;20051;-79
2021/09/20 06:59:20;;;;;;;5.22;1.50;;;;;;;;;;4911238;29;20388;-79
2021/09/20 07:01:46;;;;;;;5.03;1.38;;;;;;;;;;4917400;29;20032;-79
2021/09/20 07:04:12;;;;;;;5.07;1.38;;;;;;;;;;4907117;29;20103;-79
2021/09/20 07:06:38;;;;;;;6.18;1.52;;;;;;;;;;4911948;29;20028;-79
2021/09/20 07:09:04;;;;;;;5.25;1.10;;;;;;;;;;4912869;29;20051;-79
2021/09/20 07:11:30;;;;;;;8.85;1.70;;;;;;;;;;4911226;29;20036;-79
2021/09/20 07:13:56;;;;;;;3.70;1.42;;;;;;;;;;4912303;29;20757;-79
2021/09/20 07:16:22;;;;;;;6.50;1.40;;;;;;;;;;4909421;29;20044;-79
2021/09/20 07:18:48;;;;;;;5.30;1.30;;;;;;;;;;4912270;29;20103;-80
2021/09/20 07:21:14;;;;;;;8.10;1.50;;;;;;;;;;4911752;29;20115;-80
2021/09/20 07:23:40;;;;;;;5.55;1.50;;;;;;;;;;4912616;29;20035;-80
2021/09/20 07:26:06;;;;;;;5.05;1.20;;;;;;;;;;4910543;29;20044;-80
2021/09/20 07:28:32;;;;;;;6.22;1.30;;;;;;;;;;4906816;29;20059;-79
2021/09/20 07:30:58;;;;;;;10.13;1.63;;;;;;;;;;4908103;29;20082;-80
2021/09/20 07:33:24;;;;;;;7.63;1.40;;;;;;;;;;4909107;29;20032;-80
2021/09/20 07:35:50;;;;;;;6.45;1.50;;;;;;;;;;4909843;29;20127;-79
2021/09/20 07:38:16;;;;;;;7.88;1.77;;;;;;;;;;4911151;29;20036;-79
2021/09/20 07:40:42;;;;;;;6.80;1.83;;;;;;;;;;4908088;29;20039;-80
2021/09/20 07:43:09;;;;;;;4.78;1.63;;;;;;;;;;4910294;29;20028;-80
2021/09/20 07:45:35;;;;;;;6.05;1.80;;;;;;;;;;4912642;29;20391;-79
2021/09/20 07:48:01;;;;;;;7.95;1.40;;;;;;;;;;4912157;29;20543;-79
2021/09/20 07:50:28;;;;;;;5.10;1.33;;;;;;;;;;4904794;29;20084;-79
2021/09/20 07:52:54;;;;;;;5.97;1.60;;;;;;;;;;4911284;29;20479;-79
2021/09/20 07:55:20;;;;;;;4.35;1.30;;;;;;;;;;4917393;29;20039;-79
2021/09/20 07:57:46;;;;;;;8.13;1.48;;;;;;;;;;4915435;29;20095;-78
2021/09/20 08:00:13;;;;;;;4.85;1.17;;;;;;;;;;4913572;29;20040;-79
2021/09/20 08:02:39;;;;;;;4.80;1.30;;;;;;;;;;4918031;29;20057;-78
2021/09/20 08:05:05;;;;;;;5.43;1.83;;;;;;;;;;4916178;29;20036;-78
2021/09/20 08:07:31;;;;;;;4.60;1.42;;;;;;;;;;4914682;29;20076;-79
2021/09/20 08:09:57;;;;;;;8.27;1.17;;;;;;;;;;4907201;29;20108;-78
2021/09/20 08:12:23;;;;;;;8.23;1.45;;;;;;;;;;4916058;29;20039;-79
2021/09/20 08:14:49;;;;;;;3.80;1.30;;;;;;;;;;4910823;29;20048;-78
2021/09/20 08:17:15;;;;;;;5.32;1.63;;;;;;;;;;4909819;29;20032;-78
2021/09/20 08:19:42;;;;;;;5.35;1.42;;;;;;;;;;4909379;29;20045;-78
2021/09/20 08:22:10;;;;;;;10.25;1.13;;;;;;;;;;4914124;29;20069;-78
2021/09/20 08:24:36;;;;;;;8.93;1.13;;;;;;;;;;4913018;29;20420;-78
2021/09/20 08:27:02;;;;;;;6.72;1.40;;;;;;;;;;4916792;29;20032;-78
2021/09/20 08:29:28;;;;;;;7.80;1.45;;;;;;;;;;4907917;29;20044;-78
2021/09/20 08:31:54;;;;;;;4.85;1.30;;;;;;;;;;4915783;29;20039;-78
2021/09/20 08:34:20;;;;;;;5.07;1.45;;;;;;;;;;4914942;29;20486;-78
2021/09/20 08:36:46;;;;;;;4.60;1.60;;;;;;;;;;4909508;29;20049;-77
2021/09/20 08:39:12;;;;;;;4.78;1.27;;;;;;;;;;4913383;29;20032;-79
2021/09/20 08:41:41;;;;;;;4.07;1.45;;;;;;;;;;4915187;29;20171;-79
2021/09/20 08:44:09;;;;;;;6.57;1.67;;;;;;;;;;4905690;29;20032;-78
2021/09/20 08:46:36;;;;;;;5.28;1.45;;;;;;;;;;4914143;29;20024;-78
2021/09/20 08:49:02;;;;;;;5.85;1.30;;;;;;;;;;4909562;29;20032;-78
2021/09/20 08:51:28;;;;;;;5.18;1.52;;;;;;;;;;4914616;29;20056;-78
2021/09/20 08:53:54;;;;;;;6.55;1.55;;;;;;;;;;4917472;29;20039;-78
2021/09/20 08:56:20;;;;;;;5.38;1.35;;;;;;;;;;4920155;29;20039;-78
2021/09/20 08:58:46;;;;;;;6.72;1.38;;;;;;;;;;4912080;29;20535;-78
2021/09/20 09:01:12;;;;;;;5.38;1.88;;;;;;;;;;4912622;29;20032;-78
2021/09/20 09:03:38;;;;;;;5.70;1.58;;;;;;;;;;4905064;29;20067;-78
2021/09/20 09:06:04;;;;;;;6.07;1.67;;;;;;;;;;4920074;29;20037;-78
2021/09/20 09:08:34;;;;;;;8.90;1.80;;;;;;;;;;4914418;29;20028;-78
2021/09/20 09:11:02;;;;;;;7.68;1.90;;;;;;;;;;4911850;29;20032;-79
2021/09/20 09:13:38;;;;;;;5.40;2.00;;;;;;;;;;4910332;29;20068;-78
2021/09/20 09:16:11;;;;;;;8.75;1.88;;;;;;;;;;4922919;29;20035;-78
2021/09/20 09:18:56;;;;;;;6.35;1.52;;;;;;;;;;4908909;29;20067;-78
2021/09/20 09:21:22;;;;;;;5.82;2.00;;;;;;;;;;4907362;29;20056;-78
2021/09/20 09:23:58;;;;;;;4.25;1.83;;;;;;;;;;4910504;29;20025;-78
2021/09/20 09:26:24;;;;;;;4.82;1.90;;;;;;;;;;4913224;29;20059;-78
2021/09/20 09:28:53;;;;;;;3.33;1.50;;;;;;;;;;4909313;29;20088;-78
2021/09/20 09:31:19;;;;;;;9.50;1.80;;;;;;;;;;4913773;29;20464;-78
2021/09/20 09:33:45;;;;;;;7.50;2.38;;;;;;;;;;4902298;29;20046;-78
2021/09/20 09:36:14;;;;;;;6.78;1.80;;;;;;;;;;4913862;29;20036;-78
2021/09/20 09:38:56;;;;;;;6.50;1.80;;;;;;;;;;4912766;29;20035;-78
2021/09/20 09:41:32;;;;;;;4.88;1.20;;;;;;;;;;4906549;29;20388;-78
2021/09/20 09:44:02;;;;;;;5.65;1.20;;;;;;;;;;4913998;29;20036;-78
2021/09/20 09:46:28;;;;;;;3.80;1.25;;;;;;;;;;4911084;29;20023;-79
2021/09/20 09:48:54;;;;;;;4.13;0.80;;;;;;;;;;4913421;29;20151;-79
2021/09/20 09:51:20;;;;;;;6.05;1.30;;;;;;;;;;4911347;29;20052;-78
2021/09/20 09:53:47;;;;;;;5.28;1.33;;;;;;;;;;4906008;29;20037;-78
2021/09/20 09:56:17;;;;;;;4.22;1.10;;;;;;;;;;4905591;29;20048;-79
2021/09/20 09:59:00;;;;;;;6.00;1.38;;;;;;;;;;4901753;29;20255;-79
2021/09/20 10:01:32;;;;;;;3.88;0.85;;;;;;;;;;4907645;29;20431;-79
2021/09/20 10:04:05;;;;;;;4.57;0.80;;;;;;;;;;4913567;29;20036;-78
2021/09/20 10:06:37;;;;;;;6.05;1.00;;;;;;;;;;4906642;29;20033;-79
2021/09/20 10:09:03;;;;;;;3.97;1.33;;;;;;;;;;4915344;29;20107;-78
2021/09/20 10:11:29;;;;;;;4.15;0.98;;;;;;;;;;4913345;29;20115;-78
2021/09/20 10:13:55;;;;;;;3.90;1.23;;;;;;;;;;4914307;29;20075;-78
2021/09/20 10:16:21;;;;;;;6.03;1.33;;;;;;;;;;4908023;29;20036;-79
2021/09/20 10:18:47;;;;;;;7.53;1.30;;;;;;;;;;4913925;29;20100;-79
2021/09/20 10:21:13;;;;;;;3.30;0.85;;;;;;;;;;4909583;29;20456;-79
2021/09/20 10:23:39;;;;;;;7.13;1.10;;;;;;;;;;4893275;29;20040;-79
2021/09/20 10:26:05;;;;;;;5.22;0.80;;;;;;;;;;4908620;29;20036;-78
2021/09/20 10:28:31;;;;;;;2.80;0.80;;;;;;;;;;4902671;29;20040;-79
2021/09/20 10:30:57;;;;;;;3.72;0.80;;;;;;;;;;4911144;29;20502;-79
2021/09/20 10:33:27;;;;;;;3.90;1.20;;;;;;;;;;4910793;29;20119;-79
2021/09/20 10:35:55;;;;;;;6.30;1.00;;;;;;;;;;4913705;29;20076;-80
2021/09/20 10:38:21;;;;;;;7.25;1.13;;;;;;;;;;4909735;29;20036;-79
2021/09/20 10:41:05;;;;;;;4.68;1.00;;;;;;;;;;4907774;29;20555;-79
2021/09/20 10:43:31;;;;;;;3.10;0.90;;;;;;;;;;4915610;29;20039;-78
2021/09/20 10:45:57;;;;;;;4.00;1.13;;;;;;;;;;4913360;29;20024;-79
2021/09/20 10:48:30;;;;;;;2.70;0.95;;;;;;;;;;4916248;29;20043;-78
2021/09/20 10:50:57;;;;;;;4.50;1.00;;;;;;;;;;4907074;29;20055;-79
2021/09/20 10:53:31;;;;;;;4.68;0.90;;;;;;;;;;4914729;29;20123;-79
2021/09/20 10:56:03;;;;;;;5.75;0.95;;;;;;;;;;4918847;29;20056;-78
2021/09/20 10:58:38;;;;;;;2.15;0.70;;;;;;;;;;4906409;29;20028;-79
2021/09/20 11:01:11;;;;;;;4.90;1.35;;;;;;;;;;4909580;29;21127;-79
2021/09/20 11:03:48;;;;;;;6.47;1.27;;;;;;;;;;4906795;29;20032;-80
2021/09/20 11:06:22;;;;;;;4.22;1.30;;;;;;;;;;4907122;29;20043;-80
2021/09/20 11:09:01;;;;;;;3.78;1.00;;;;;;;;;;4901122;29;20111;-78
2021/09/20 11:11:33;;;;;;;4.07;1.02;;;;;;;;;;4914753;29;20039;-80
2021/09/20 11:14:01;;;;;;;6.40;1.10;;;;;;;;;;4910817;29;20047;-79
2021/09/20 11:16:46;;;;;;;2.05;0.80;;;;;;;;;;4918706;29;20032;-80
2021/09/20 11:19:33;;;;;;;2.72;1.00;;;;;;;;;;4914737;29;20028;-80
2021/09/20 11:24:40;;;;;;;3.17;0.90;;;;;;;;;;4908871;29;20044;-80
2021/09/20 11:27:06;;;;;;;;;;;;;;;;;;4912661;29;20119;-79
2021/09/20 11:29:32;;;;;;;3.08;0.88;;;;;;;;;;4909921;29;20005;-79
2021/09/20 11:32:03;;;;;;;6.60;0.77;;;;;;;;;;4906006;29;20050;-79
2021/09/20 11:34:30;;;;;;;5.95;0.70;;;;;;;;;;4911149;29;20164;-79
2021/09/20 11:37:28;;;;;;;3.30;0.70;;;;;;;;;;4902413;29;20032;-79
2021/09/20 11:39:57;;;;;;;4.85;0.90;;;;;;;;;;4888025;29;20060;-79
2021/09/20 11:42:52;;;;;;;3.28;1.13;;;;;;;;;;4915963;29;20062;-79
2021/09/20 11:45:24;;;;;;;4.25;0.80;;;;;;;;;;4907340;29;20056;-79
2021/09/20 11:47:51;;;;;;;3.17;0.88;;;;;;;;;;4907698;29;20047;-79
2021/09/20 11:50:28;;;;;;;5.70;1.00;;;;;;;;;;4903948;29;20060;-78
2021/09/20 11:53:01;;;;;;;3.22;0.82;;;;;;;;;;4911032;29;20057;-79
2021/09/20 11:55:38;;;;;;;4.43;1.02;;;;;;;;;;4907339;29;20040;-79
2021/09/20 11:58:08;;;;;;;7.28;0.95;;;;;;;;;;4904525;29;20032;-79
2021/09/20 12:00:36;;;;;;;4.10;1.00;;;;;;;;;;4913562;29;20115;-79
2021/09/20 12:03:04;;;;;;;9.13;0.90;;;;;;;;;;4912538;29;20028;-79
2021/09/20 12:05:32;;;;;;;5.50;0.95;;;;;;;;;;4908834;29;20139;-79
2021/09/20 12:07:59;;;;;;;4.30;0.95;;;;;;;;;;4913814;29;20488;-79
2021/09/20 12:10:29;;;;;;;3.78;0.80;;;;;;;;;;4901620;29;20052;-79
2021/09/20 12:12:58;;;;;;;5.40;1.38;;;;;;;;;;4911593;29;20843;-79
2021/09/20 12:15:28;;;;;;;4.28;1.25;;;;;;;;;;4904426;29;20052;-79
2021/09/20 12:17:59;;;;;;;3.28;0.93;;;;;;;;;;4899382;29;20868;-79
2021/09/20 12:20:31;;;;;;;5.57;1.35;;;;;;;;;;4907908;29;20072;-79
2021/09/20 12:22:57;;;;;;;;;;;;;;;;;;4912376;29;20035;-79
2021/09/20 12:25:29;;;;;;;3.67;1.30;;;;;;;;;;4913353;29;19919;-79
2021/09/20 12:27:55;;;;;;;3.72;1.25;;;;;;;;;;4906679;29;20028;-79
2021/09/20 12:30:23;;;;;;;4.55;1.10;;;;;;;;;;4909808;29;20075;-79
2021/09/20 12:32:49;;;;;;;6.15;1.30;;;;;;;;;;4913425;29;20035;-79
2021/09/20 12:35:15;;;;;;;4.75;1.25;;;;;;;;;;4915556;29;20071;-79
2021/09/20 12:37:42;;;;;;;3.60;0.98;;;;;;;;;;4915599;29;20087;-79
2021/09/20 12:40:23;;;;;;;3.20;1.02;;;;;;;;;;4914945;29;20042;-79
2021/09/20 12:43:09;;;;;;;3.42;1.10;;;;;;;;;;4902879;29;20618;-79
2021/09/20 12:45:41;;;;;;;3.15;1.23;;;;;;;;;;4908407;29;20386;-79
2021/09/20 12:48:07;;;;;;;3.15;1.00;;;;;;;;;;4904115;29;20055;-79
2021/09/20 12:50:38;;;;;;;4.78;1.45;;;;;;;;;;4915490;29;20052;-79
2021/09/20 12:53:03;;;;;;;5.18;1.30;;;;;;;;;;4913609;29;20044;-80
2021/09/20 12:55:36;;;;;;;7.22;1.30;;;;;;;;;;4912371;29;20088;-79
2021/09/20 12:58:03;;;;;;;3.80;1.10;;;;;;;;;;4906286;29;20024;-80
2021/09/20 13:00:34;;;;;;;3.45;0.80;;;;;;;;;;4913395;29;20036;-79
2021/09/20 13:03:09;;;;;;;5.03;1.23;;;;;;;;;;4914119;29;20043;-79
2021/09/20 13:05:45;;;;;;;3.10;1.00;;;;;;;;;;4913535;29;20032;-79
2021/09/20 13:08:12;;;;;;;3.08;1.10;;;;;;;;;;4910694;29;20031;-79
2021/09/20 13:10:42;;;;;;;5.15;0.88;;;;;;;;;;4913137;29;20182;-79
2021/09/20 13:13:10;;;;;;;3.40;1.35;;;;;;;;;;4907235;29;20031;-79
2021/09/20 13:15:42;;;;;;;7.03;2.25;;;;;;;;;;4915511;29;20040;-80
2021/09/20 13:18:17;;;;;;;4.80;2.13;;;;;;;;;;4909951;29;20060;-79
2021/09/20 13:20:43;;;;;;;4.03;1.50;;;;;;;;;;4910997;29;20036;-79
2021/09/20 13:23:10;;;;;;;5.40;1.98;;;;;;;;;;4914435;29;20028;-79
2021/09/20 13:25:46;;;;;;;4.68;2.22;;;;;;;;;;4910615;29;20031;-79
2021/09/20 13:28:13;;;;;;;6.38;1.67;;;;;;;;;;4908766;29;20059;-79
2021/09/20 13:30:41;;;;;;;4.05;1.10;;;;;;;;;;4907902;29;20111;-79
2021/09/20 13:33:07;;;;;;;5.80;1.75;;;;;;;;;;4911389;29;20032;-79
2021/09/20 13:35:35;;;;;;;3.38;1.45;;;;;;;;;;4909678;29;20503;-79
2021/09/20 13:38:02;;;;;;;5.20;1.70;;;;;;;;;;4911954;29;20036;-80
2021/09/20 13:40:28;;;;;;;8.20;1.52;;;;;;;;;;4914585;29;20055;-78
2021/09/20 13:42:54;;;;;;;3.97;1.90;;;;;;;;;;4911640;29;20024;-79
2021/09/20 13:45:20;;;;;;;5.70;2.92;;;;;;;;;;4910966;29;20075;-80
2021/09/20 13:47:46;;;;;;;8.32;6.18;;;;;;;;;;4912595;29;20020;-79
2021/09/20 13:50:13;;;;;;;9.82;7.88;;;;;;;;;;4908350;29;20092;-79
2021/09/20 13:52:40;;;;;;;9.18;4.95;;;;;;;;;;4906471;29;20496;-79
2021/09/20 13:55:07;;;;;;;8.48;2.88;;;;;;;;;;4912622;29;20040;-79
2021/09/20 13:57:33;;;;;;;5.20;2.25;;;;;;;;;;4913526;29;20428;-80
2021/09/20 13:59:59;;;;;;;7.47;2.20;;;;;;;;;;4915203;29;20367;-79
2021/09/20 14:02:25;;;;;;;11.70;2.35;;;;;;;;;;4912363;29;20032;-79
2021/09/20 14:04:51;;;;;;;5.43;1.52;;;;;;;;;;4914791;29;20032;-80
2021/09/20 14:07:17;;;;;;;5.47;2.00;;;;;;;;;;4907325;29;20107;-79
2021/09/20 14:09:44;;;;;;;4.47;1.20;;;;;;;;;;4919010;29;20127;-80
2021/09/20 14:12:10;;;;;;;4.40;1.15;;;;;;;;;;4913930;29;20067;-79
2021/09/20 14:14:36;;;;;;;3.85;1.75;;;;;;;;;;4914618;29;20445;-80
2021/09/20 14:17:03;;;;;;;4.75;2.45;;;;;;;;;;4901219;29;20076;-80
2021/09/20 14:19:29;;;;;;;5.82;1.52;;;;;;;;;;4895251;29;20047;-79
2021/09/20 14:21:55;;;;;;;3.80;1.52;;;;;;;;;;4910548;29;20032;-80
2021/09/20 14:24:21;;;;;;;4.30;1.30;;;;;;;;;;4910479;29;20063;-80
2021/09/20 14:26:47;;;;;;;7.28;1.27;;;;;;;;;;4912159;29;20066;-79
2021/09/20 14:29:13;;;;;;;5.63;1.27;;;;;;;;;;4913059;29;20032;-80
2021/09/20 14:31:40;;;;;;;13.20;2.40;;;;;;;;;;4912236;29;20046;-80
2021/09/20 14:34:06;;;;;;;7.03;2.17;;;;;;;;;;4897030;29;20049;-79
2021/09/20 14:36:32;;;;;;;7.35;1.88;;;;;;;;;;4912221;29;20096;-79
2021/09/20 14:38:58;;;;;;;7.32;2.65;;;;;;;;;;4913359;29;20036;-79
2021/09/20 14:41:24;;;;;;;6.75;3.17;;;;;;;;;;4913043;29;20297;-79
2021/09/20 14:43:50;;;;;;;6.53;2.45;;;;;;;;;;4908940;29;20043;-79
2021/09/20 14:46:16;;;;;;;4.82;2.38;;;;;;;;;;4913867;29;20563;-80
2021/09/20 14:48:42;;;;;;;6.28;2.55;;;;;;;;;;4911355;29;20099;-80